Time;durP1;ratioP1;P1;durP2;ratioP2;P2;SDS_P1;SDS_P2;PMS_P1;PMS_P2;Temp;Humidity;BMP_temperature;BMP_pressure;BME280_temperature;BME280_humidity;BME280_pressure;Samples;Min_cycle;Max_cycle;Signal;HPM_P1;HPM_P2
2023/06/01 00:00:14;;;;;;;1.60;1.50;;;23.90;56.10;;;;;;5087412;28;20216;-44
2023/06/01 00:02:42;;;;;;;2.40;1.80;;;24.00;56.00;;;;;;5056268;28;20191;-45
2023/06/01 00:05:13;;;;;;;3.13;2.00;;;24.00;56.10;;;;;;5032057;28;20187;-45
2023/06/01 00:07:43;;;;;;;1.70;1.60;;;23.90;56.00;;;;;;5048644;28;20210;-45
2023/06/01 00:10:14;;;;;;;1.47;1.37;;;23.90;56.00;;;;;;5060762;28;20279;-44
2023/06/01 00:12:43;;;;;;;1.90;1.60;;;23.90;56.00;;;;;;5050738;28;20205;-44
2023/06/01 00:15:17;;;;;;;2.50;1.80;;;23.90;56.00;;;;;;5062068;28;20198;-44
2023/06/01 00:17:51;;;;;;;2.00;1.80;;;23.90;55.90;;;;;;5055785;28;20275;-45
2023/06/01 00:20:28;;;;;;;1.77;1.67;;;23.90;55.90;;;;;;5044206;28;20186;-45
2023/06/01 00:23:06;;;;;;;1.80;1.70;;;23.80;55.80;;;;;;5065693;28;20194;-45
2023/06/01 00:25:37;;;;;;;1.77;1.50;;;23.80;55.80;;;;;;5073483;28;20206;-45
2023/06/01 00:28:08;;;;;;;1.87;1.67;;;23.80;55.80;;;;;;5066490;28;20271;-45
2023/06/01 00:30:40;;;;;;;2.50;1.60;;;23.80;55.80;;;;;;5050064;28;20206;-45
2023/06/01 00:33:09;;;;;;;2.07;1.67;;;23.80;55.70;;;;;;5049868;28;20214;-45
2023/06/01 00:35:41;;;;;;;1.60;1.50;;;23.80;55.70;;;;;;5064810;28;20194;-45
2023/06/01 00:38:11;;;;;;;2.40;1.80;;;23.80;55.70;;;;;;5070064;28;20555;-45
2023/06/01 00:40:41;;;;;;;2.43;1.83;;;23.80;56.40;;;;;;5052085;28;20747;-44
2023/06/01 00:43:12;;;;;;;2.07;1.40;;;23.80;55.70;;;;;;5071210;28;20663;-44
2023/06/01 00:45:43;;;;;;;1.53;1.43;;;23.80;55.60;;;;;;5068470;28;20234;-44
2023/06/01 00:48:23;;;;;;;1.73;1.63;;;23.80;55.60;;;;;;5068283;28;20661;-44
2023/06/01 00:50:51;;;;;;;1.90;1.67;;;23.70;55.60;;;;;;5071964;28;20258;-44
2023/06/01 00:53:22;;;;;;;1.90;1.60;;;23.70;55.50;;;;;;5053460;28;20185;-44
2023/06/01 00:55:54;;;;;;;1.80;1.70;;;23.70;55.50;;;;;;5070544;28;20200;-44
2023/06/01 00:58:23;;;;;;;2.03;1.77;;;23.70;55.40;;;;;;5078524;28;20225;-44
2023/06/01 01:01:18;;;;;;;2.00;1.87;;;23.70;55.40;;;;;;5052412;28;20193;-44
2023/06/01 01:03:57;;;;;;;1.67;1.57;;;23.70;55.40;;;;;;5073729;28;20197;-44
2023/06/01 01:07:00;;;;;;;1.70;1.57;;;23.70;55.40;;;;;;5063787;28;20255;-44
2023/06/01 01:10:03;;;;;;;1.83;1.63;;;23.60;55.30;;;;;;5069682;28;20213;-44
2023/06/01 01:13:04;;;;;;;1.97;1.70;;;23.60;55.40;;;;;;5075988;28;20228;-44
2023/06/01 01:15:57;;;;;;;1.87;1.40;;;23.60;55.30;;;;;;5057932;28;20193;-45
2023/06/01 01:18:42;;;;;;;1.70;1.60;;;23.60;55.40;;;;;;5067505;28;20220;-45
2023/06/01 01:21:27;;;;;;;1.70;1.60;;;23.60;55.30;;;;;;5064079;28;20627;-44
2023/06/01 01:24:33;;;;;;;2.40;1.70;;;23.60;55.30;;;;;;5036107;28;20195;-44
2023/06/01 01:27:27;;;;;;;2.13;1.93;;;23.60;55.30;;;;;;5051494;28;20200;-45
2023/06/01 01:29:59;;;;;;;2.80;1.90;;;23.60;55.20;;;;;;5059422;28;20222;-45
2023/06/01 01:32:35;;;;;;;2.37;1.70;;;23.50;55.20;;;;;;5041183;28;20208;-44
2023/06/01 01:35:13;;;;;;;1.93;1.83;;;23.50;55.20;;;;;;5066319;28;20266;-45
2023/06/01 01:37:53;;;;;;;3.00;2.00;;;23.50;55.20;;;;;;5051981;28;20219;-45
2023/06/01 01:40:25;;;;;;;1.93;1.77;;;23.50;55.10;;;;;;5050263;28;20235;-44
2023/06/01 01:42:56;;;;;;;2.03;1.70;;;23.50;55.20;;;;;;5056146;28;20627;-44
2023/06/01 01:45:30;;;;;;;2.87;1.70;;;23.50;55.10;;;;;;5070616;28;20671;-45
2023/06/01 01:48:35;;;;;;;2.10;1.50;;;23.50;55.00;;;;;;5082770;28;20201;-45
2023/06/01 01:51:23;;;;;;;2.30;2.10;;;23.50;55.00;;;;;;4986079;28;20216;-44
2023/06/01 01:53:56;;;;;;;1.80;1.60;;;23.50;55.00;;;;;;5071599;28;20201;-44
2023/06/01 01:56:37;;;;;;;1.70;1.60;;;23.50;55.00;;;;;;5037454;28;20662;-44
2023/06/01 01:59:09;;;;;;;1.80;1.70;;;23.40;54.90;;;;;;5038685;28;20209;-44
2023/06/01 02:01:44;;;;;;;2.10;1.90;;;23.50;54.90;;;;;;5052120;28;20209;-45
2023/06/01 02:04:28;;;;;;;3.67;2.10;;;23.50;54.90;;;;;;5038491;28;20237;-45
2023/06/01 02:07:01;;;;;;;2.13;1.77;;;23.40;54.80;;;;;;5056756;28;20275;-45
2023/06/01 02:09:33;;;;;;;1.90;1.73;;;23.40;54.80;;;;;;5062767;28;20228;-45
2023/06/01 02:12:02;;;;;;;2.60;1.70;;;23.40;54.80;;;;;;5069735;28;20198;-45
2023/06/01 02:14:34;;;;;;;1.90;1.70;;;23.40;54.80;;;;;;5045934;28;20198;-45
2023/06/01 02:17:07;;;;;;;1.60;1.50;;;23.40;54.80;;;;;;5055171;28;20206;-45
2023/06/01 02:19:34;;;;;;;1.90;1.77;;;23.40;54.80;;;;;;5067034;28;20232;-45
2023/06/01 02:22:04;;;;;;;1.90;1.70;;;23.30;54.70;;;;;;5069126;28;20216;-44
2023/06/01 02:24:47;;;;;;;2.37;2.10;;;23.40;54.70;;;;;;5072596;28;20273;-44
2023/06/01 02:27:15;;;;;;;1.83;1.73;;;23.40;54.70;;;;;;5063294;28;20204;-44
2023/06/01 02:29:47;;;;;;;2.90;2.10;;;23.30;54.60;;;;;;5065518;28;20669;-44
2023/06/01 02:32:20;;;;;;;1.70;1.60;;;23.30;54.50;;;;;;5046021;28;20202;-44
2023/06/01 02:34:52;;;;;;;2.60;1.70;;;23.30;54.60;;;;;;5069346;28;20205;-44
2023/06/01 02:37:26;;;;;;;1.80;1.70;;;23.30;54.60;;;;;;5068289;28;20201;-44
2023/06/01 02:39:58;;;;;;;2.50;1.73;;;23.20;54.60;;;;;;5051489;28;20250;-44
2023/06/01 02:42:33;;;;;;;3.13;1.97;;;23.20;54.50;;;;;;5032748;28;20194;-44
2023/06/01 02:45:05;;;;;;;3.37;2.03;;;23.30;54.60;;;;;;5027007;28;20695;-44
2023/06/01 02:47:36;;;;;;;2.90;1.80;;;23.20;54.50;;;;;;5042605;28;20211;-45
2023/06/01 02:50:08;;;;;;;1.80;1.70;;;23.20;54.50;;;;;;5039678;28;20198;-45
2023/06/01 02:52:38;;;;;;;2.03;1.83;;;23.20;54.40;;;;;;5029331;28;20199;-45
2023/06/01 02:55:09;;;;;;;2.10;1.83;;;23.20;54.50;;;;;;5012684;28;20843;-44
2023/06/01 02:57:40;;;;;;;1.80;1.47;;;23.20;54.50;;;;;;5032229;28;20217;-44
2023/06/01 03:00:15;;;;;;;2.17;1.90;;;23.10;54.40;;;;;;5044293;28;20256;-44
2023/06/01 03:02:52;;;;;;;2.00;1.80;;;23.10;54.50;;;;;;5038983;28;20198;-44
2023/06/01 03:05:24;;;;;;;2.03;1.77;;;23.10;54.60;;;;;;5045485;28;20591;-44
2023/06/01 03:07:54;;;;;;;2.07;1.87;;;23.10;54.60;;;;;;5047173;28;20194;-44
2023/06/01 03:10:25;;;;;;;2.20;1.80;;;23.10;54.50;;;;;;5047170;28;20250;-45
2023/06/01 03:12:56;;;;;;;2.33;2.00;;;23.10;54.60;;;;;;5057531;28;20254;-45
2023/06/01 03:15:27;;;;;;;2.33;2.13;;;23.10;54.50;;;;;;5047409;28;20213;-45
2023/06/01 03:17:55;;;;;;;2.90;2.00;;;23.10;54.50;;;;;;5046190;28;20230;-45
2023/06/01 03:20:27;;;;;;;2.37;1.80;;;23.00;54.40;;;;;;5045696;28;20644;-45
2023/06/01 03:22:58;;;;;;;3.57;2.27;;;23.00;54.40;;;;;;5056024;28;20205;-44
2023/06/01 03:25:30;;;;;;;2.67;1.87;;;23.00;54.40;;;;;;5049792;28;20192;-44
2023/06/01 03:28:01;;;;;;;1.90;1.80;;;23.00;54.40;;;;;;5046115;28;20214;-44
2023/06/01 03:30:29;;;;;;;2.20;2.00;;;23.00;54.40;;;;;;5030127;28;20197;-44
2023/06/01 03:33:04;;;;;;;2.33;2.13;;;23.00;54.40;;;;;;5034306;28;20655;-45
2023/06/01 03:35:37;;;;;;;2.40;2.00;;;23.00;54.40;;;;;;5036099;28;20182;-45
2023/06/01 03:38:10;;;;;;;1.77;1.60;;;23.00;54.40;;;;;;5051709;28;20242;-45
2023/06/01 03:40:40;;;;;;;2.67;1.90;;;23.00;54.50;;;;;;5068389;28;20222;-45
2023/06/01 03:43:11;;;;;;;2.57;1.90;;;22.90;54.40;;;;;;5061106;28;20198;-45
2023/06/01 03:45:42;;;;;;;2.30;2.10;;;23.00;54.40;;;;;;5063216;28;20793;-45
2023/06/01 03:48:14;;;;;;;2.70;1.80;;;22.90;54.40;;;;;;5068092;28;20201;-44
2023/06/01 03:50:45;;;;;;;1.90;1.80;;;22.90;54.40;;;;;;5071413;28;20223;-45
2023/06/01 03:53:20;;;;;;;2.40;1.87;;;22.90;54.30;;;;;;5045364;28;20210;-45
2023/06/01 03:55:52;;;;;;;2.23;1.77;;;22.90;54.40;;;;;;5064160;28;20220;-44
2023/06/01 03:58:26;;;;;;;1.90;1.80;;;22.90;54.30;;;;;;5065607;28;20689;-43
2023/06/01 04:01:03;;;;;;;2.00;1.80;;;22.90;54.30;;;;;;5071629;28;20205;-44
2023/06/01 04:03:38;;;;;;;2.10;1.90;;;22.90;54.40;;;;;;5071848;28;20205;-44
2023/06/01 04:06:12;;;;;;;2.37;1.90;;;22.80;54.40;;;;;;5054436;28;20283;-44
2023/06/01 04:08:47;;;;;;;1.90;1.63;;;22.90;54.40;;;;;;5055785;28;20670;-44
2023/06/01 04:11:19;;;;;;;2.23;1.57;;;22.80;54.30;;;;;;5071774;28;20218;-44
2023/06/01 04:13:55;;;;;;;1.93;1.83;;;22.80;54.30;;;;;;5071040;28;20200;-44
2023/06/01 04:16:26;;;;;;;2.23;2.03;;;22.80;54.20;;;;;;5058195;28;20190;-44
2023/06/01 04:18:57;;;;;;;1.83;1.60;;;22.80;54.30;;;;;;5051583;28;20221;-43
2023/06/01 04:21:30;;;;;;;1.70;1.60;;;22.80;54.30;;;;;;5053104;28;20291;-45
2023/06/01 04:24:02;;;;;;;2.20;2.00;;;22.80;54.40;;;;;;5052849;28;20273;-44
2023/06/01 04:26:33;;;;;;;2.00;1.90;;;22.80;54.30;;;;;;5064659;28;20193;-44
2023/06/01 04:29:05;;;;;;;2.60;2.00;;;22.80;53.80;;;;;;5048516;28;20217;-44
2023/06/01 04:31:34;;;;;;;2.17;1.83;;;22.80;54.30;;;;;;5065786;28;20240;-44
2023/06/01 04:34:05;;;;;;;2.00;1.80;;;22.80;54.30;;;;;;5050614;28;20214;-44
2023/06/01 04:36:38;;;;;;;2.10;2.00;;;22.80;54.30;;;;;;5054258;28;20191;-43
2023/06/01 04:39:11;;;;;;;2.07;1.73;;;22.70;54.30;;;;;;5058892;28;20244;-44
2023/06/01 04:41:38;;;;;;;2.00;1.70;;;22.80;54.40;;;;;;5038539;28;20210;-44
2023/06/01 04:44:15;;;;;;;1.77;1.67;;;22.80;54.30;;;;;;5049999;28;20186;-44
2023/06/01 04:46:44;;;;;;;1.93;1.70;;;22.70;54.30;;;;;;5039957;28;20209;-44
2023/06/01 04:49:18;;;;;;;1.80;1.70;;;22.80;54.30;;;;;;5036355;28;20198;-44
2023/06/01 04:51:51;;;;;;;2.50;1.70;;;22.80;54.40;;;;;;5039204;28;20549;-44
2023/06/01 04:54:22;;;;;;;1.63;1.53;;;22.70;54.30;;;;;;5035316;28;20692;-44
2023/06/01 04:56:52;;;;;;;1.53;1.43;;;22.70;54.20;;;;;;5025673;28;20233;-44
2023/06/01 04:59:23;;;;;;;2.23;1.80;;;22.70;54.20;;;;;;5045922;28;20211;-44
2023/06/01 05:01:55;;;;;;;1.93;1.70;;;22.70;54.20;;;;;;5054060;28;20218;-45
2023/06/01 05:04:25;;;;;;;2.40;1.90;;;22.70;54.80;;;;;;5049021;28;20221;-45
2023/06/01 05:06:56;;;;;;;2.73;2.23;;;22.70;54.20;;;;;;5035790;28;20691;-46
2023/06/01 05:09:26;;;;;;;2.73;2.00;;;22.70;54.20;;;;;;5056280;28;20225;-47
2023/06/01 05:11:58;;;;;;;3.40;2.27;;;22.70;54.30;;;;;;5045331;28;20206;-45
2023/06/01 05:14:29;;;;;;;2.23;2.00;;;22.70;54.30;;;;;;5039188;28;20190;-45
2023/06/01 05:16:59;;;;;;;2.67;2.00;;;22.70;54.40;;;;;;5026963;28;20183;-45
2023/06/01 05:19:33;;;;;;;3.43;2.30;;;22.70;54.40;;;;;;5051291;28;20248;-45
2023/06/01 05:22:07;;;;;;;5.63;2.40;;;22.60;54.40;;;;;;5046178;28;20214;-45
2023/06/01 05:24:40;;;;;;;2.33;1.97;;;22.70;54.50;;;;;;5037756;28;20318;-45
2023/06/01 05:27:12;;;;;;;2.50;2.20;;;22.70;54.50;;;;;;5039649;28;20191;-45
2023/06/01 05:29:44;;;;;;;3.07;2.10;;;22.60;54.40;;;;;;5034720;28;20199;-44
2023/06/01 05:32:16;;;;;;;2.97;2.20;;;22.70;54.50;;;;;;5045547;28;20206;-45
2023/06/01 05:34:47;;;;;;;3.40;2.10;;;22.70;54.40;;;;;;5041659;28;20226;-44
2023/06/01 05:37:18;;;;;;;3.13;1.87;;;22.70;54.50;;;;;;5037513;28;20215;-45
2023/06/01 05:39:49;;;;;;;2.00;1.80;;;22.70;54.40;;;;;;5054730;28;20238;-45
2023/06/01 05:42:17;;;;;;;3.60;2.10;;;22.70;54.40;;;;;;5060445;28;20647;-44
2023/06/01 05:44:49;;;;;;;3.20;2.27;;;22.70;54.40;;;;;;5067356;28;20283;-45
2023/06/01 05:47:20;;;;;;;2.80;1.90;;;22.70;54.20;;;;;;5069868;28;20213;-45
2023/06/01 05:49:50;;;;;;;3.50;2.10;;;22.60;54.30;;;;;;5070123;28;20198;-45
2023/06/01 05:52:25;;;;;;;2.40;2.20;;;22.70;54.20;;;;;;5068186;28;20630;-45
2023/06/01 05:54:56;;;;;;;3.77;2.33;;;22.60;54.10;;;;;;5068859;28;20200;-45
2023/06/01 05:57:27;;;;;;;2.83;2.03;;;22.70;54.20;;;;;;5067257;28;20221;-44
2023/06/01 05:59:59;;;;;;;3.27;2.10;;;22.60;54.10;;;;;;5069506;28;20225;-43
2023/06/01 06:02:29;;;;;;;2.90;2.43;;;22.60;54.10;;;;;;5067108;28;20217;-44
2023/06/01 06:05:03;;;;;;;3.60;2.50;;;22.60;54.00;;;;;;5065238;28;20273;-44
2023/06/01 06:07:34;;;;;;;4.20;2.43;;;22.60;54.00;;;;;;5053419;28;20197;-44
2023/06/01 06:10:03;;;;;;;3.33;2.40;;;22.60;54.00;;;;;;5055839;28;20197;-44
2023/06/01 06:12:35;;;;;;;3.07;2.40;;;22.60;54.00;;;;;;5063572;28;20383;-44
2023/06/01 06:15:05;;;;;;;3.30;2.10;;;22.60;54.00;;;;;;5069721;28;20202;-44
2023/06/01 06:17:36;;;;;;;3.63;2.40;;;22.60;53.90;;;;;;5068922;28;20194;-44
2023/06/01 06:20:08;;;;;;;3.77;2.77;;;22.60;53.80;;;;;;5066878;28;20291;-44
2023/06/01 06:22:36;;;;;;;3.70;2.30;;;22.60;53.90;;;;;;5045550;28;20205;-44
2023/06/01 06:25:11;;;;;;;3.90;2.70;;;22.60;53.80;;;;;;5067915;28;20339;-44
2023/06/01 06:27:45;;;;;;;3.33;2.53;;;22.60;53.70;;;;;;5060910;28;20255;-44
2023/06/01 06:30:16;;;;;;;4.23;2.60;;;22.60;53.70;;;;;;5066038;28;20263;-43
2023/06/01 06:32:46;;;;;;;3.93;2.27;;;22.60;53.70;;;;;;5067201;28;20213;-44
2023/06/01 06:35:21;;;;;;;3.57;2.67;;;22.60;53.70;;;;;;5068129;28;20190;-44
2023/06/01 06:37:51;;;;;;;6.13;3.07;;;22.60;53.80;;;;;;5058693;28;20214;-44
2023/06/01 06:40:23;;;;;;;3.40;2.50;;;22.60;53.80;;;;;;5066272;28;20240;-44
2023/06/01 06:42:54;;;;;;;3.93;2.70;;;22.60;53.70;;;;;;5065963;28;20318;-44
2023/06/01 06:45:24;;;;;;;3.43;2.80;;;22.60;53.50;;;;;;5057474;28;20205;-44
2023/06/01 06:47:53;;;;;;;6.00;2.70;;;22.60;53.70;;;;;;5055396;28;20198;-44
2023/06/01 06:50:23;;;;;;;3.67;2.60;;;22.60;53.70;;;;;;5053426;28;20217;-44
2023/06/01 06:52:53;;;;;;;4.93;2.63;;;22.60;53.60;;;;;;5059031;28;20200;-44
2023/06/01 06:55:24;;;;;;;3.63;2.40;;;22.50;53.50;;;;;;5057173;28;20214;-43
2023/06/01 06:57:54;;;;;;;3.63;2.60;;;22.60;53.60;;;;;;5049063;28;20642;-44
2023/06/01 07:00:22;;;;;;;5.07;2.90;;;22.60;53.60;;;;;;5061279;28;20229;-44
2023/06/01 07:02:53;;;;;;;3.30;2.40;;;22.50;53.60;;;;;;5053654;28;20194;-44
2023/06/01 07:05:25;;;;;;;4.30;2.93;;;22.60;53.60;;;;;;5052828;28;20190;-44
2023/06/01 07:07:56;;;;;;;2.80;2.60;;;22.60;53.60;;;;;;5064362;28;20193;-44
2023/06/01 07:10:25;;;;;;;4.53;3.03;;;22.60;53.50;;;;;;5064129;28;20212;-45
2023/06/01 07:13:02;;;;;;;5.13;3.00;;;22.50;53.40;;;;;;5032726;28;20197;-46
2023/06/01 07:15:33;;;;;;;4.30;2.90;;;22.50;53.40;;;;;;5032216;28;20204;-45
2023/06/01 07:18:03;;;;;;;5.20;2.70;;;22.60;53.40;;;;;;5066257;28;20201;-46
2023/06/01 07:20:31;;;;;;;4.97;3.43;;;22.60;53.40;;;;;;5061200;28;20405;-46
2023/06/01 07:23:02;;;;;;;5.03;2.73;;;22.60;53.40;;;;;;5049144;28;20186;-45
2023/06/01 07:25:30;;;;;;;5.03;3.13;;;22.60;53.40;;;;;;5055224;28;20623;-45
2023/06/01 07:28:06;;;;;;;4.53;3.00;;;22.50;53.40;;;;;;5070253;28;20545;-45
2023/06/01 07:30:35;;;;;;;3.70;3.27;;;22.60;53.50;;;;;;5048148;28;20191;-45
2023/06/01 07:33:04;;;;;;;3.90;3.20;;;22.60;53.50;;;;;;5033442;28;20218;-44
2023/06/01 07:35:37;;;;;;;3.20;2.90;;;22.50;53.40;;;;;;5060547;28;20619;-44
2023/06/01 07:38:12;;;;;;;3.73;2.80;;;22.60;53.50;;;;;;5045542;28;20210;-45
2023/06/01 07:40:43;;;;;;;3.00;2.70;;;22.60;53.40;;;;;;5070903;28;20225;-45
2023/06/01 07:43:16;;;;;;;4.00;2.70;;;22.50;53.30;;;;;;5072486;28;20638;-44
2023/06/01 07:45:45;;;;;;;4.10;3.13;;;22.60;53.40;;;;;;5060597;28;20683;-44
2023/06/01 07:48:14;;;;;;;4.70;3.47;;;22.60;53.20;;;;;;5069796;28;20197;-44
2023/06/01 07:50:44;;;;;;;4.73;2.90;;;22.60;53.30;;;;;;5066473;28;20212;-44
2023/06/01 07:53:13;;;;;;;3.40;3.10;;;22.60;53.20;;;;;;5064850;28;20671;-45
2023/06/01 07:55:43;;;;;;;3.20;2.67;;;22.60;53.20;;;;;;5036532;28;20261;-45
2023/06/01 07:58:13;;;;;;;6.13;3.13;;;22.60;53.90;;;;;;5059536;28;20212;-44
2023/06/01 08:00:42;;;;;;;4.67;3.23;;;22.60;53.30;;;;;;5069811;28;20226;-44
2023/06/01 08:03:14;;;;;;;4.43;3.30;;;22.60;53.30;;;;;;5069770;28;20178;-44
2023/06/01 08:05:46;;;;;;;3.23;2.70;;;22.60;53.30;;;;;;5062979;28;20194;-45
2023/06/01 08:08:15;;;;;;;3.50;2.97;;;22.60;53.30;;;;;;5054174;28;20182;-44
2023/06/01 08:10:48;;;;;;;3.60;2.83;;;22.60;53.30;;;;;;5071469;28;20298;-45
2023/06/01 08:13:25;;;;;;;3.57;2.80;;;22.60;53.30;;;;;;5072059;28;20197;-44
2023/06/01 08:15:54;;;;;;;4.33;3.07;;;22.60;53.20;;;;;;5071441;28;20194;-44
2023/06/01 08:18:23;;;;;;;4.93;3.27;;;22.60;53.10;;;;;;5060096;28;20221;-44
2023/06/01 08:20:53;;;;;;;3.90;3.33;;;22.60;53.10;;;;;;5068460;28;20298;-45
2023/06/01 08:23:23;;;;;;;3.10;2.57;;;22.60;53.20;;;;;;5054516;28;20519;-45
2023/06/01 08:25:55;;;;;;;3.93;3.30;;;22.60;53.20;;;;;;5071120;28;20230;-44
2023/06/01 08:28:23;;;;;;;3.53;3.10;;;22.60;53.30;;;;;;5066550;28;20220;-45
2023/06/01 08:30:52;;;;;;;3.70;2.93;;;22.60;53.10;;;;;;5069454;28;20280;-44
2023/06/01 08:33:26;;;;;;;4.67;3.07;;;22.60;53.10;;;;;;5069245;28;20217;-44
2023/06/01 08:35:57;;;;;;;5.83;3.40;;;22.60;53.00;;;;;;5071937;28;20182;-45
2023/06/01 08:38:32;;;;;;;5.00;3.33;;;22.60;52.90;;;;;;5063381;28;20198;-46
2023/06/01 08:41:34;;;;;;;5.87;3.70;;;22.60;52.90;;;;;;5063355;28;20213;-45
2023/06/01 08:44:06;;;;;;;4.00;3.17;;;22.70;53.10;;;;;;5022428;28;20208;-44
2023/06/01 08:46:41;;;;;;;4.43;3.00;;;22.70;53.00;;;;;;5051000;28;20830;-44
2023/06/01 08:49:13;;;;;;;5.80;3.73;;;22.70;52.80;;;;;;5043724;28;20236;-44
2023/06/01 08:51:44;;;;;;;5.47;3.40;;;22.70;52.60;;;;;;5069225;28;20255;-44
2023/06/01 08:54:16;;;;;;;3.73;3.33;;;22.70;52.80;;;;;;5033217;28;20209;-44
2023/06/01 08:56:45;;;;;;;5.50;3.50;;;22.70;52.80;;;;;;5061294;28;20924;-44
2023/06/01 08:59:15;;;;;;;5.93;3.40;;;22.70;53.00;;;;;;5060622;28;20198;-44
2023/06/01 09:01:47;;;;;;;4.27;3.43;;;22.70;52.90;;;;;;5061800;28;20545;-43
2023/06/01 09:04:20;;;;;;;5.17;3.40;;;22.70;52.80;;;;;;5055458;28;20178;-43
2023/06/01 09:06:52;;;;;;;4.83;3.43;;;22.70;53.00;;;;;;5064325;28;20643;-44
2023/06/01 09:09:24;;;;;;;4.93;3.27;;;22.70;53.10;;;;;;5056311;28;20533;-43
2023/06/01 09:12:16;;;;;;;3.93;3.00;;;22.70;53.10;;;;;;5058371;28;20198;-44
2023/06/01 09:14:54;;;;;;;5.07;3.57;;;22.70;53.00;;;;;;5062753;28;20619;-43
2023/06/01 09:17:23;;;;;;;4.07;3.20;;;22.70;53.10;;;;;;5056638;28;20196;-44
2023/06/01 09:19:55;;;;;;;4.27;3.30;;;22.70;53.10;;;;;;5050541;28;20228;-43
2023/06/01 09:22:42;;;;;;;3.73;3.30;;;22.70;53.20;;;;;;5042847;28;20655;-45
2023/06/01 09:25:27;;;;;;;4.07;3.50;;;22.80;53.10;;;;;;5040543;28;20194;-44
2023/06/01 09:27:57;;;;;;;3.57;2.97;;;22.70;52.90;;;;;;5049078;28;20265;-43
2023/06/01 09:30:37;;;;;;;3.80;3.13;;;22.80;53.10;;;;;;5037251;28;20284;-43
2023/06/01 09:33:24;;;;;;;4.27;3.30;;;22.80;53.00;;;;;;5048277;28;20221;-43
2023/06/01 09:35:54;;;;;;;4.13;3.00;;;22.80;53.00;;;;;;5058395;28;20511;-44
2023/06/01 09:38:27;;;;;;;5.00;3.83;;;22.80;53.00;;;;;;5067444;28;20255;-44
2023/06/01 09:41:03;;;;;;;5.47;3.43;;;22.80;52.90;;;;;;5043118;28;20225;-44
2023/06/01 09:43:37;;;;;;;5.20;3.70;;;22.80;52.90;;;;;;5039982;28;20201;-44
2023/06/01 09:46:13;;;;;;;4.67;3.47;;;22.80;52.90;;;;;;5044515;28;20254;-44
2023/06/01 09:48:44;;;;;;;7.50;4.23;;;22.80;52.80;;;;;;5041892;28;20522;-44
2023/06/01 09:51:30;;;;;;;4.67;3.60;;;22.80;52.80;;;;;;5044743;28;20206;-44
2023/06/01 09:54:03;;;;;;;5.60;3.87;;;22.80;52.80;;;;;;5045492;28;20201;-44
2023/06/01 09:56:51;;;;;;;4.87;3.50;;;22.80;52.80;;;;;;5042138;28;20237;-43
2023/06/01 09:59:36;;;;;;;4.77;3.87;;;22.90;52.90;;;;;;5032580;28;20219;-43
2023/06/01 10:02:10;;;;;;;5.37;3.87;;;22.80;52.90;;;;;;5047456;28;20199;-44
2023/06/01 10:04:41;;;;;;;5.70;3.50;;;22.90;53.00;;;;;;5037130;28;20187;-44
2023/06/01 10:07:13;;;;;;;5.10;3.97;;;22.90;53.00;;;;;;5020839;28;20207;-45
2023/06/01 10:09:55;;;;;;;5.37;3.50;;;22.90;52.80;;;;;;5033188;28;20210;-44
2023/06/01 10:12:28;;;;;;;3.87;3.47;;;22.90;53.00;;;;;;5031407;28;20548;-44
2023/06/01 10:15:09;;;;;;;4.10;3.53;;;22.90;53.10;;;;;;5016396;28;20635;-44
2023/06/01 10:18:00;;;;;;;6.23;3.70;;;22.90;53.10;;;;;;5037425;28;20322;-44
2023/06/01 10:20:36;;;;;;;5.47;4.40;;;22.90;53.00;;;;;;5011403;28;20252;-43
2023/06/01 10:23:07;;;;;;;5.83;3.40;;;22.90;52.90;;;;;;5022281;28;20186;-44
2023/06/01 10:25:57;;;;;;;4.87;3.23;;;22.90;53.00;;;;;;5039877;28;20186;-44
2023/06/01 10:28:36;;;;;;;5.20;3.80;;;22.90;53.00;;;;;;5012599;28;20198;-44
2023/06/01 10:31:40;;;;;;;6.13;3.80;;;23.00;53.10;;;;;;5045209;28;20259;-44
2023/06/01 10:34:49;;;;;;;5.60;3.47;;;22.90;53.00;;;;;;5031064;28;20294;-45
2023/06/01 10:37:18;;;;;;;5.37;3.87;;;22.90;53.00;;;;;;5030205;28;20570;-44
2023/06/01 10:39:48;;;;;;;6.20;4.23;;;23.00;53.10;;;;;;5023468;28;20313;-44
2023/06/01 10:42:17;;;;;;;6.53;4.57;;;23.00;53.10;;;;;;5030502;28;20206;-44
2023/06/01 10:44:50;;;;;;;5.67;4.37;;;23.00;53.00;;;;;;5045240;28;20214;-47
2023/06/01 10:47:22;;;;;;;6.63;4.57;;;23.00;53.00;;;;;;5038601;28;20271;-44
2023/06/01 10:50:00;;;;;;;4.33;3.80;;;23.00;53.00;;;;;;5055407;28;20797;-44
2023/06/01 10:52:40;;;;;;;4.80;3.90;;;23.00;52.90;;;;;;5041845;28;20209;-44
2023/06/01 10:55:13;;;;;;;4.60;3.67;;;23.00;52.80;;;;;;5052326;28;20197;-44
2023/06/01 10:57:48;;;;;;;5.20;3.87;;;23.00;52.80;;;;;;5047567;28;20201;-44
2023/06/01 11:00:21;;;;;;;5.07;3.80;;;23.00;52.80;;;;;;5050027;28;20258;-44
2023/06/01 11:03:02;;;;;;;6.03;4.00;;;23.10;52.80;;;;;;5047106;28;20191;-44
2023/06/01 11:05:38;;;;;;;5.17;4.40;;;23.10;53.00;;;;;;5047202;28;20179;-44
2023/06/01 11:08:32;;;;;;;6.20;4.70;;;23.10;53.10;;;;;;5042270;28;20224;-44
2023/06/01 11:11:03;;;;;;;5.43;4.83;;;23.10;52.70;;;;;;5035130;28;20223;-44
2023/06/01 11:13:45;;;;;;;7.87;4.90;;;23.10;52.40;;;;;;5041829;28;20237;-43
2023/06/01 11:16:22;;;;;;;6.83;5.10;;;23.10;52.40;;;;;;5035267;28;20228;-44
2023/06/01 11:19:00;;;;;;;6.63;4.40;;;23.10;52.20;;;;;;5038152;28;20221;-43
2023/06/01 11:21:42;;;;;;;6.30;4.57;;;23.10;52.40;;;;;;5039484;28;20660;-43
2023/06/01 11:24:17;;;;;;;5.40;4.37;;;23.20;52.50;;;;;;5042272;28;20194;-43
2023/06/01 11:26:48;;;;;;;5.93;4.67;;;23.20;52.50;;;;;;5046818;28;20202;-43
2023/06/01 11:29:27;;;;;;;5.13;4.37;;;23.10;52.60;;;;;;5035677;28;20218;-43
2023/06/01 11:32:06;;;;;;;8.00;5.43;;;23.20;52.60;;;;;;5042272;28;20516;-44
2023/06/01 11:34:51;;;;;;;5.63;4.40;;;23.20;52.50;;;;;;5049774;28;20198;-44
2023/06/01 11:37:21;;;;;;;5.37;4.77;;;23.20;52.30;;;;;;5047401;28;20217;-44
2023/06/01 11:40:04;;;;;;;6.90;4.80;;;23.20;52.30;;;;;;5055961;28;20553;-44
2023/06/01 11:42:36;;;;;;;5.60;4.57;;;23.30;52.60;;;;;;5063236;28;20201;-45
2023/06/01 11:45:04;;;;;;;5.77;4.83;;;23.30;52.40;;;;;;5064353;28;20214;-45
2023/06/01 11:47:35;;;;;;;7.33;5.17;;;23.30;52.10;;;;;;5064027;28;20656;-44
2023/06/01 11:50:19;;;;;;;8.03;5.30;;;23.30;52.00;;;;;;5066220;28;20213;-44
2023/06/01 11:52:47;;;;;;;7.10;5.03;;;23.40;51.60;;;;;;5066002;28;20229;-44
2023/06/01 11:55:20;;;;;;;7.13;4.40;;;23.40;51.70;;;;;;5067057;28;20193;-44
2023/06/01 11:57:51;;;;;;;5.60;4.50;;;23.40;52.00;;;;;;5057737;28;20202;-44
2023/06/01 12:00:23;;;;;;;6.90;4.83;;;23.30;52.70;;;;;;5063468;28;20659;-44
2023/06/01 12:03:09;;;;;;;5.60;4.50;;;23.40;52.20;;;;;;5066647;28;20201;-44
2023/06/01 12:05:49;;;;;;;6.33;5.00;;;23.40;52.10;;;;;;5068374;28;20210;-44
2023/06/01 12:08:23;;;;;;;5.33;4.50;;;23.40;51.90;;;;;;5023959;28;20186;-43
2023/06/01 12:11:16;;;;;;;6.83;4.63;;;23.50;52.20;;;;;;5054968;28;20206;-44
2023/06/01 12:14:06;;;;;;;5.20;4.10;;;23.40;52.30;;;;;;5067729;28;20197;-44
2023/06/01 12:17:02;;;;;;;5.63;4.20;;;23.40;52.50;;;;;;5049245;28;20757;-44
2023/06/01 12:19:52;;;;;;;5.07;4.03;;;23.50;52.60;;;;;;5059275;28;20190;-44
2023/06/01 12:22:30;;;;;;;5.00;4.50;;;23.50;52.50;;;;;;5066776;28;20241;-43
2023/06/01 12:25:08;;;;;;;6.23;4.60;;;23.50;52.50;;;;;;5055362;28;20194;-44
2023/06/01 12:28:07;;;;;;;4.57;3.93;;;23.50;52.50;;;;;;5071190;28;20255;-44
2023/06/01 12:31:17;;;;;;;5.00;4.17;;;23.50;52.50;;;;;;5050513;28;20635;-44
2023/06/01 12:34:18;;;;;;;4.93;4.30;;;23.50;52.60;;;;;;5047034;28;20202;-44
2023/06/01 12:36:48;;;;;;;6.13;4.70;;;23.60;52.20;;;;;;5070757;28;20201;-43
2023/06/01 12:39:36;;;;;;;5.57;4.13;;;23.60;52.20;;;;;;5064564;28;20241;-43
2023/06/01 12:42:09;;;;;;;5.60;4.17;;;23.60;52.40;;;;;;5061549;28;20658;-44
2023/06/01 12:44:53;;;;;;;4.77;4.07;;;23.60;52.70;;;;;;5053261;28;20212;-44
2023/06/01 12:47:26;;;;;;;5.50;4.23;;;23.70;52.80;;;;;;5071409;28;20197;-44
2023/06/01 12:50:12;;;;;;;5.50;4.67;;;23.60;53.00;;;;;;5071109;28;20220;-44
2023/06/01 12:52:44;;;;;;;7.03;4.13;;;23.70;53.00;;;;;;5069500;28;20200;-44
2023/06/01 12:55:17;;;;;;;6.50;4.80;;;23.70;52.20;;;;;;5054766;28;20205;-44
2023/06/01 12:57:57;;;;;;;6.13;3.90;;;23.70;52.10;;;;;;5055983;28;20234;-44
2023/06/01 13:00:29;;;;;;;5.73;4.20;;;23.70;52.40;;;;;;5068254;28;20205;-43
2023/06/01 13:03:24;;;;;;;5.20;4.10;;;23.70;52.20;;;;;;5070859;28;20650;-44
2023/06/01 13:05:58;;;;;;;4.80;4.20;;;23.80;52.20;;;;;;5043226;28;20202;-44
2023/06/01 13:08:28;;;;;;;6.60;4.43;;;23.80;52.30;;;;;;5047637;28;20198;-44
2023/06/01 13:10:57;;;;;;;6.03;4.43;;;23.80;52.10;;;;;;5071320;28;20631;-44
2023/06/01 13:13:25;;;;;;;6.93;4.43;;;23.80;52.30;;;;;;5070449;28;20241;-44
2023/06/01 13:15:59;;;;;;;5.60;4.30;;;23.80;52.20;;;;;;5070192;28;20190;-43
2023/06/01 13:18:31;;;;;;;5.57;4.20;;;23.80;52.00;;;;;;5068066;28;20213;-44
2023/06/01 13:21:02;;;;;;;5.80;4.37;;;23.90;51.80;;;;;;5065704;28;20218;-44
2023/06/01 13:23:31;;;;;;;5.17;4.67;;;23.90;51.40;;;;;;5069953;28;20634;-44
2023/06/01 13:26:02;;;;;;;5.70;4.43;;;24.00;51.40;;;;;;5058358;28;20186;-44